Rechercher aéroport 
image banner adimage banner ad
image banner ad

SVQC - Hato El Caiman

Situé à Portuguesa, Venezuela

ICAO - SVQC, IATA -

Données fournies par Airmate  

Information générale

Coordonnées: N9°6'0" W69°37'12"
Élévation : 164 feet MSL.
 
Voir autres Aéroports à Apure

Données opérationnelles

Accessible au public
Heure actuelle UTC:
Heure actuelle locale:
Météo à : SVGU - Guanare Ntl ( 17 km )
METAR: SVGU 051402Z AUTO 26002KT NCD 26/21 Q1016
Voir NOTAMs / SUP AIP / TFR affectant cet aéroport [VIEW]
Fréquences de communication: [VIEW]

Pistes:

Identifiant RWYQFULongueur (ft)Largeur (ft)SurfaceLDA (ft)
0300
2100

Coordonnées de l'aéroport

Adresse: Portuguesa Venezuela

Vue satellite de SVQC